createdAt,value
2023-05-11T00:02:21.313Z,41.10
2023-05-11T00:04:51.324Z,37.90
2023-05-11T00:07:21.313Z,38.87
2023-05-11T00:09:51.298Z,41.17
2023-05-11T00:12:20.831Z,37.40
2023-05-11T00:14:51.008Z,37.30
2023-05-11T00:17:20.903Z,45.63
2023-05-11T00:19:50.850Z,39.40
2023-05-11T00:22:20.523Z,41.13
2023-05-11T00:24:50.329Z,41.47
2023-05-11T00:27:20.147Z,39.87
2023-05-11T00:29:50.237Z,35.00
2023-05-11T00:32:20.118Z,37.95
2023-05-11T00:34:50.044Z,40.20
2023-05-11T00:37:19.994Z,39.43
2023-05-11T00:39:50.088Z,40.35
2023-05-11T00:42:19.614Z,37.27
2023-05-11T00:44:49.438Z,41.70
2023-05-11T00:47:19.318Z,40.80
2023-05-11T00:49:50.775Z,42.63
2023-05-11T00:52:22.473Z,39.08
2023-05-11T00:54:52.485Z,41.53
2023-05-11T00:57:22.805Z,40.00
2023-05-11T00:59:52.617Z,39.73
2023-05-11T01:02:22.704Z,44.83
2023-05-11T01:04:52.911Z,43.40
2023-05-11T01:07:28.665Z,48.43
2023-05-11T01:12:48.224Z,43.95
2023-05-11T01:15:26.610Z,46.33
2023-05-11T01:18:05.690Z,46.02
2023-05-11T01:20:36.485Z,41.63
2023-05-11T01:23:28.688Z,45.77
2023-05-11T01:26:04.265Z,43.80
2023-05-11T01:28:59.106Z,44.10
2023-05-11T01:31:34.762Z,46.02
2023-05-11T01:34:07.604Z,42.73
2023-05-11T01:36:40.792Z,45.33
2023-05-11T01:39:14.010Z,44.10
2023-05-11T01:41:46.719Z,45.17
2023-05-11T01:44:18.343Z,41.27
2023-05-11T01:46:50.129Z,42.80
2023-05-11T01:49:22.654Z,43.63
2023-05-11T01:51:54.517Z,46.67
2023-05-11T01:54:26.455Z,41.87
2023-05-11T01:56:58.099Z,43.93
2023-05-11T01:59:29.166Z,45.97
2023-05-11T02:02:01.165Z,40.47
2023-05-11T02:04:32.741Z,44.23
2023-05-11T02:07:03.392Z,38.73
2023-05-11T02:09:35.157Z,42.55
2023-05-11T02:12:06.839Z,45.65
2023-05-11T02:14:39.131Z,43.23
2023-05-11T02:17:11.074Z,46.28
2023-05-11T02:19:43.305Z,39.90
2023-05-11T02:22:14.431Z,40.77
2023-05-11T02:24:44.375Z,40.60
2023-05-11T02:27:14.209Z,44.80
2023-05-11T02:29:44.332Z,42.08
2023-05-11T02:32:17.231Z,36.65
2023-05-11T02:34:50.136Z,42.07
2023-05-11T02:37:23.439Z,38.90
2023-05-11T02:40:06.121Z,42.83
2023-05-11T02:42:39.301Z,43.27
2023-05-11T02:45:14.512Z,41.70
2023-05-11T02:47:49.868Z,42.47
2023-05-11T02:50:24.413Z,43.57
2023-05-11T02:52:57.642Z,47.35
2023-05-11T02:55:29.932Z,43.57
2023-05-11T02:58:00.038Z,45.03
2023-05-11T03:00:30.617Z,47.07
2023-05-11T03:03:00.616Z,48.15
2023-05-11T03:05:30.962Z,40.67
2023-05-11T03:08:01.861Z,50.33
2023-05-11T03:10:31.803Z,52.13
2023-05-11T03:13:02.469Z,51.00
2023-05-11T03:15:33.615Z,54.40
2023-05-11T03:18:05.678Z,56.23
2023-05-11T03:20:37.942Z,57.03
2023-05-11T03:23:09.395Z,51.87
2023-05-11T03:25:42.036Z,54.33
2023-05-11T03:28:15.670Z,56.00
2023-05-11T03:30:48.938Z,60.57
2023-05-11T03:33:20.973Z,55.60
2023-05-11T03:35:52.232Z,53.55
2023-05-11T03:38:24.981Z,55.17
2023-05-11T03:40:55.753Z,59.80
2023-05-11T03:43:27.865Z,65.40
2023-05-11T03:45:58.868Z,65.77
2023-05-11T03:48:28.831Z,58.50
2023-05-11T03:50:58.993Z,59.57
2023-05-11T03:53:28.946Z,58.57
2023-05-11T03:55:59.184Z,59.75
2023-05-11T03:58:28.848Z,64.97
2023-05-11T04:00:58.817Z,66.20
2023-05-11T04:03:28.778Z,60.33
2023-05-11T04:05:58.719Z,62.17
2023-05-11T04:08:28.383Z,55.65
2023-05-11T04:10:57.887Z,65.10
2023-05-11T04:13:27.751Z,61.30
2023-05-11T04:15:57.616Z,65.40
2023-05-11T04:18:27.522Z,57.65
2023-05-11T04:20:57.973Z,66.20
2023-05-11T04:23:28.414Z,62.35
2023-05-11T04:26:00.680Z,56.25
2023-05-11T04:28:30.663Z,61.90
2023-05-11T04:31:00.597Z,52.63
2023-05-11T04:33:31.400Z,60.13
2023-05-11T04:36:01.303Z,62.15
2023-05-11T04:38:31.883Z,58.95
2023-05-11T04:41:09.264Z,64.62
2023-05-11T04:43:41.380Z,64.07
2023-05-11T04:46:13.418Z,64.03
2023-05-11T04:48:44.016Z,56.50
2023-05-11T04:51:14.084Z,62.77
2023-05-11T04:53:45.950Z,69.55
2023-05-11T04:56:15.672Z,58.05
2023-05-11T04:58:45.478Z,59.83
2023-05-11T05:01:15.329Z,64.20
2023-05-11T05:03:47.023Z,58.50
2023-05-11T05:06:16.894Z,67.33
2023-05-11T05:08:46.995Z,54.25
2023-05-11T05:11:17.800Z,56.50
2023-05-11T05:13:47.992Z,57.38
2023-05-11T05:16:17.576Z,57.13
2023-05-11T05:18:47.788Z,56.15
2023-05-11T05:21:17.927Z,56.43
2023-05-11T05:23:48.044Z,53.45
2023-05-11T05:26:17.838Z,53.93
2023-05-11T05:28:49.251Z,57.03
2023-05-11T05:31:20.845Z,51.83
2023-05-11T05:33:51.421Z,54.83
2023-05-11T05:36:21.061Z,54.15
2023-05-11T05:38:51.223Z,53.40
2023-05-11T05:41:22.310Z,56.93
2023-05-11T05:43:53.958Z,52.90
2023-05-11T05:46:24.165Z,50.20
2023-05-11T05:48:54.391Z,54.63
2023-05-11T05:51:24.268Z,52.40
2023-05-11T05:53:54.765Z,54.48
2023-05-11T05:56:24.690Z,54.73
2023-05-11T05:58:54.498Z,54.20
2023-05-11T06:01:24.482Z,55.37
2023-05-11T06:03:55.812Z,54.67
2023-05-11T06:06:27.154Z,51.57
2023-05-11T06:08:57.273Z,52.90
2023-05-11T06:11:27.349Z,52.93
2023-05-11T06:13:57.198Z,48.30
2023-05-11T06:16:28.152Z,54.43
2023-05-11T06:18:58.119Z,51.20
2023-05-11T06:21:28.086Z,52.80
2023-05-11T06:23:58.292Z,54.03
2023-05-11T06:26:28.772Z,49.50
2023-05-11T06:28:58.631Z,53.33
2023-05-11T06:31:29.389Z,48.60
2023-05-11T06:33:59.356Z,48.97
2023-05-11T06:36:30.298Z,49.07
2023-05-11T06:39:00.221Z,57.20
2023-05-11T06:41:30.065Z,49.67
2023-05-11T06:44:00.646Z,50.73
2023-05-11T06:46:32.484Z,52.53
2023-05-11T06:49:02.891Z,47.90
2023-05-11T06:51:32.975Z,50.75
2023-05-11T06:54:02.818Z,48.77
2023-05-11T06:56:34.038Z,47.67
2023-05-11T06:59:05.181Z,47.00
2023-05-11T07:01:35.440Z,51.83
2023-05-11T07:04:06.005Z,48.10
2023-05-11T07:06:36.084Z,48.37
2023-05-11T07:09:06.425Z,49.37
2023-05-11T07:11:37.277Z,45.17
2023-05-11T07:14:08.348Z,50.83
2023-05-11T07:16:38.521Z,43.20
2023-05-11T07:19:09.683Z,47.38
2023-05-11T07:21:39.856Z,43.10
2023-05-11T07:24:10.664Z,45.17
2023-05-11T07:26:40.885Z,39.50
2023-05-11T07:29:11.656Z,43.07
2023-05-11T07:31:42.902Z,43.47
2023-05-11T07:34:14.839Z,37.23
2023-05-11T07:36:45.095Z,37.23
2023-05-11T07:39:16.547Z,41.60
2023-05-11T07:41:47.127Z,46.90
2023-05-11T07:44:18.466Z,46.32
2023-05-11T07:46:48.424Z,44.50
2023-05-11T07:49:22.945Z,43.23
2023-05-11T07:51:52.166Z,44.20
2023-05-11T07:54:22.134Z,41.85
2023-05-11T07:56:52.088Z,41.43
2023-05-11T07:59:22.281Z,46.53
2023-05-11T08:01:52.549Z,46.25
2023-05-11T08:04:22.456Z,46.02
2023-05-11T08:06:52.668Z,45.50
2023-05-11T08:09:23.814Z,49.60
2023-05-11T08:11:54.003Z,47.20
2023-05-11T08:14:25.168Z,45.15
2023-05-11T08:16:54.759Z,43.75
2023-05-11T08:19:24.921Z,46.55
2023-05-11T08:21:54.776Z,55.63
2023-05-11T08:24:24.885Z,48.60
2023-05-11T08:26:54.709Z,47.50
2023-05-11T08:29:26.437Z,47.80
2023-05-11T08:31:56.668Z,44.90
2023-05-11T08:34:26.426Z,46.93
2023-05-11T08:36:56.415Z,47.77
2023-05-11T08:39:43.605Z,42.78
2023-05-11T08:41:59.698Z,45.23
2023-05-11T08:44:32.867Z,49.58
2023-05-11T08:47:20.940Z,45.63
2023-05-11T08:49:37.260Z,43.50
2023-05-11T08:52:07.958Z,46.23
2023-05-11T08:54:38.278Z,45.12
2023-05-11T08:57:08.742Z,48.28
2023-05-11T08:59:39.273Z,48.58
2023-05-11T09:02:12.151Z,45.07
2023-05-11T09:04:42.987Z,46.53
2023-05-11T09:07:14.947Z,43.20
2023-05-11T09:09:46.184Z,42.48
2023-05-11T09:12:17.912Z,42.87
2023-05-11T09:14:47.790Z,42.50
2023-05-11T09:17:17.649Z,39.43
2023-05-11T09:20:09.167Z,41.13
2023-05-11T09:22:46.847Z,45.20
2023-05-11T09:25:20.017Z,43.68
2023-05-11T09:27:50.492Z,40.55
2023-05-11T09:30:24.327Z,38.43
2023-05-11T09:32:58.948Z,44.25
2023-05-11T09:35:30.669Z,41.10
2023-05-11T09:38:15.083Z,39.80
2023-05-11T09:40:56.131Z,38.17
2023-05-11T09:43:29.406Z,45.95
2023-05-11T09:46:05.003Z,43.20
2023-05-11T09:48:35.368Z,42.50
2023-05-11T09:51:07.280Z,33.43
2023-05-11T09:53:40.922Z,38.05
2023-05-11T09:56:14.064Z,32.97
2023-05-11T09:58:52.455Z,34.53
2023-05-11T10:01:30.884Z,36.20
2023-05-11T10:04:21.004Z,36.70
2023-05-11T10:06:54.379Z,36.30
2023-05-11T10:09:28.579Z,35.47
2023-05-11T10:11:58.686Z,36.27
2023-05-11T10:14:29.676Z,36.87
2023-05-11T10:17:01.476Z,37.63
2023-05-11T10:19:32.800Z,36.03
2023-05-11T10:22:05.749Z,35.58
2023-05-11T10:24:36.621Z,32.73
2023-05-11T10:27:07.056Z,36.13
2023-05-11T10:29:38.163Z,37.28
2023-05-11T10:32:09.282Z,38.27
2023-05-11T10:34:41.121Z,36.40
2023-05-11T10:37:11.587Z,41.08
2023-05-11T10:39:42.546Z,41.85
2023-05-11T10:42:27.167Z,41.67
2023-05-11T10:45:21.401Z,38.63
2023-05-11T10:48:16.475Z,44.03
2023-05-11T10:50:52.045Z,43.27
2023-05-11T10:53:24.721Z,48.57
2023-05-11T10:56:06.467Z,44.03
2023-05-11T10:58:58.213Z,47.03
2023-05-11T11:01:30.942Z,43.80
2023-05-11T11:04:09.416Z,44.80
2023-05-11T11:06:41.981Z,47.40
2023-05-11T11:09:17.231Z,43.85
2023-05-11T11:11:50.622Z,40.73
2023-05-11T11:14:20.743Z,43.60
2023-05-11T11:17:19.355Z,43.55
2023-05-11T11:19:49.563Z,37.67
2023-05-11T11:25:20.766Z,41.53
2023-05-11T11:27:53.976Z,40.78
2023-05-11T11:30:30.523Z,37.73
2023-05-11T11:33:12.601Z,38.60
2023-05-11T11:35:46.057Z,40.40
2023-05-11T11:38:18.999Z,35.95
2023-05-11T11:40:52.508Z,35.53
2023-05-11T11:43:25.356Z,34.08
2023-05-11T11:45:57.504Z,41.60
2023-05-11T11:48:35.812Z,37.60
2023-05-11T11:51:13.848Z,36.43
2023-05-11T11:53:47.013Z,39.80
2023-05-11T11:56:21.489Z,33.27
2023-05-11T11:58:54.344Z,36.20
2023-05-11T12:01:27.554Z,37.08
2023-05-11T12:04:26.197Z,39.23
2023-05-11T12:06:59.511Z,41.00
2023-05-11T12:09:29.855Z,45.98
2023-05-11T12:12:02.107Z,46.45
2023-05-11T12:14:32.434Z,46.20
2023-05-11T12:17:04.029Z,48.57
2023-05-11T12:19:34.163Z,50.23
2023-05-11T12:22:04.116Z,46.13
2023-05-11T12:24:34.497Z,44.80
2023-05-11T12:27:04.951Z,48.60
2023-05-11T12:29:34.604Z,49.80
2023-05-11T12:32:04.157Z,55.60
2023-05-11T12:34:34.204Z,45.83
2023-05-11T12:37:07.111Z,47.50
2023-05-11T12:39:37.578Z,52.70
2023-05-11T12:42:07.803Z,57.30
2023-05-11T12:44:38.144Z,55.83
2023-05-11T12:47:08.098Z,57.50
2023-05-11T12:49:38.281Z,54.77
2023-05-11T12:52:09.173Z,51.03
2023-05-11T12:54:41.748Z,53.45
2023-05-11T12:57:26.084Z,55.27
2023-05-11T13:00:16.548Z,51.98
2023-05-11T13:02:50.001Z,55.52
2023-05-11T13:05:27.360Z,51.33
2023-05-11T13:08:02.153Z,51.50
2023-05-11T13:10:32.725Z,49.83
2023-05-11T13:13:02.914Z,45.98
2023-05-11T13:15:33.264Z,48.70
2023-05-11T13:18:04.159Z,51.80
2023-05-11T13:20:35.596Z,58.33
2023-05-11T13:23:11.404Z,53.68
2023-05-11T13:25:49.720Z,56.47
2023-05-11T13:28:23.330Z,60.03
2023-05-11T13:30:54.925Z,45.45
2023-05-11T13:33:25.130Z,44.95
2023-05-11T13:35:54.957Z,42.47
2023-05-11T13:38:25.091Z,39.50
2023-05-11T13:40:54.885Z,34.37
2023-05-11T13:43:24.989Z,38.67
2023-05-11T13:45:55.777Z,43.45
2023-05-11T13:48:26.084Z,47.25
2023-05-11T13:50:55.959Z,42.37
2023-05-11T13:53:26.216Z,40.17
2023-05-11T13:55:56.105Z,39.53
2023-05-11T13:58:26.703Z,44.42
2023-05-11T14:01:07.302Z,45.33
2023-05-11T14:03:30.015Z,40.83
2023-05-11T14:06:00.012Z,44.83
2023-05-11T14:08:30.189Z,38.40
2023-05-11T14:10:59.713Z,40.05
2023-05-11T14:13:29.865Z,40.65
2023-05-11T14:15:59.714Z,43.43
2023-05-11T14:18:29.535Z,37.30
2023-05-11T14:21:00.630Z,38.27
2023-05-11T14:23:30.781Z,35.45
2023-05-11T14:26:00.636Z,33.47
2023-05-11T14:28:31.200Z,35.52
2023-05-11T14:31:01.201Z,29.93
2023-05-11T14:33:31.112Z,30.03
2023-05-11T14:36:00.970Z,31.43
2023-05-11T14:38:31.728Z,30.03
2023-05-11T14:41:03.050Z,31.57
2023-05-11T14:43:32.854Z,34.10
2023-05-11T14:46:04.325Z,31.60
2023-05-11T14:48:34.142Z,35.43
2023-05-11T14:51:04.896Z,32.90
2023-05-11T14:53:34.776Z,36.67
2023-05-11T14:56:05.047Z,35.52
2023-05-11T14:58:34.887Z,35.35
2023-05-11T15:01:05.052Z,37.43
2023-05-11T15:03:36.860Z,32.40
2023-05-11T15:06:06.855Z,35.73
2023-05-11T15:08:36.450Z,35.92
2023-05-11T15:11:06.249Z,29.60
2023-05-11T15:13:36.062Z,30.37
2023-05-11T15:16:06.298Z,27.77
2023-05-11T15:18:35.778Z,27.73
2023-05-11T15:21:06.076Z,31.17
2023-05-11T15:23:35.905Z,29.20
2023-05-11T15:26:05.895Z,22.33
2023-05-11T15:28:35.426Z,27.95
2023-05-11T15:31:04.973Z,26.15
2023-05-11T15:33:34.823Z,31.07
2023-05-11T15:36:04.816Z,30.13
2023-05-11T15:38:34.323Z,29.13
2023-05-11T15:41:04.150Z,29.23
2023-05-11T15:43:34.488Z,30.52
2023-05-11T15:46:05.004Z,30.33
2023-05-11T15:48:35.001Z,31.33
2023-05-11T15:51:04.683Z,32.15
2023-05-11T15:53:34.835Z,31.33
2023-05-11T15:56:04.705Z,28.30
2023-05-11T15:58:34.324Z,31.95
2023-05-11T16:01:04.247Z,27.90
2023-05-11T16:03:34.157Z,26.37
2023-05-11T16:06:04.280Z,26.07
2023-05-11T16:08:34.149Z,23.33
2023-05-11T16:11:03.989Z,19.67
2023-05-11T16:13:33.813Z,17.57
2023-05-11T16:16:03.642Z,13.50
2023-05-11T16:18:33.587Z,11.83
2023-05-11T16:21:03.984Z,11.50
2023-05-11T16:23:34.080Z,12.60
2023-05-11T16:26:05.655Z,12.44
2023-05-11T16:28:35.231Z,12.00
2023-05-11T16:31:05.129Z,9.03
2023-05-11T16:33:34.968Z,8.47
2023-05-11T16:36:06.435Z,10.47
2023-05-11T16:38:37.220Z,9.30
2023-05-11T16:41:07.376Z,11.10
2023-05-11T16:43:37.680Z,9.30
2023-05-11T16:46:10.268Z,12.88
2023-05-11T16:48:40.192Z,9.93
2023-05-11T16:51:10.417Z,11.27
2023-05-11T16:53:40.330Z,9.13
2023-05-11T16:56:11.778Z,5.40
2023-05-11T16:58:43.332Z,7.50
2023-05-11T17:01:13.969Z,4.70
2023-05-11T17:03:43.860Z,7.03
2023-05-11T17:06:15.741Z,4.57
2023-05-11T17:08:46.913Z,5.90
2023-05-11T17:11:17.295Z,5.53
2023-05-11T17:13:47.146Z,7.10
2023-05-11T17:16:17.791Z,6.40
2023-05-11T17:18:47.486Z,5.00
2023-05-11T17:21:17.653Z,5.20
2023-05-11T17:23:47.622Z,4.37
2023-05-11T17:26:17.466Z,6.55
2023-05-11T17:28:47.891Z,7.28
2023-05-11T17:31:18.082Z,5.47
2023-05-11T17:33:47.810Z,6.65
2023-05-11T17:36:18.609Z,6.23
2023-05-11T17:38:49.622Z,7.13
2023-05-11T17:41:19.415Z,8.03
2023-05-11T17:43:49.225Z,7.57
2023-05-11T17:46:19.243Z,6.37
2023-05-11T17:48:49.370Z,6.23
2023-05-11T17:51:20.237Z,6.60
2023-05-11T17:53:50.240Z,9.18
2023-05-11T17:56:20.190Z,6.96
2023-05-11T17:58:50.162Z,5.90
2023-05-11T18:01:21.552Z,6.53
2023-05-11T18:03:51.499Z,6.00
2023-05-11T18:06:21.562Z,5.85
2023-05-11T18:08:51.910Z,6.07
2023-05-11T18:11:22.002Z,6.27
2023-05-11T18:13:51.559Z,6.85
2023-05-11T18:16:22.204Z,6.43
2023-05-11T18:18:52.513Z,8.03
2023-05-11T18:21:22.407Z,7.43
2023-05-11T18:23:52.308Z,8.50
2023-05-11T18:26:22.172Z,6.45
2023-05-11T18:28:51.791Z,8.50
2023-05-11T18:31:22.491Z,7.70
2023-05-11T18:33:52.370Z,6.57
2023-05-11T18:36:22.173Z,7.83
2023-05-11T18:38:52.224Z,7.27
2023-05-11T18:41:22.609Z,9.13
2023-05-11T18:43:54.297Z,10.53
2023-05-11T18:46:24.157Z,7.05
2023-05-11T18:48:54.354Z,8.35
2023-05-11T18:51:25.194Z,6.97
2023-05-11T18:53:55.342Z,9.80
2023-05-11T18:56:24.832Z,8.53
2023-05-11T18:58:54.613Z,8.97
2023-05-11T19:01:28.158Z,7.50
2023-05-11T19:03:56.098Z,8.33
2023-05-11T19:06:25.628Z,7.10
2023-05-11T19:08:55.843Z,7.63
2023-05-11T19:11:25.677Z,7.57
2023-05-11T19:13:55.615Z,9.00
2023-05-11T19:16:25.453Z,6.23
2023-05-11T19:18:56.779Z,8.03
2023-05-11T19:21:26.701Z,7.90
2023-05-11T19:23:56.533Z,7.00
2023-05-11T19:26:26.419Z,10.28
2023-05-11T19:28:56.252Z,10.20
2023-05-11T19:31:27.916Z,9.33
2023-05-11T19:33:59.323Z,10.53
2023-05-11T19:36:29.703Z,10.93
2023-05-11T19:38:59.604Z,10.30
2023-05-11T19:41:29.410Z,9.30
2023-05-11T19:43:59.313Z,10.07
2023-05-11T19:46:28.969Z,9.53
2023-05-11T19:48:58.833Z,9.90
2023-05-11T19:51:28.674Z,12.30
2023-05-11T19:53:58.747Z,9.93
2023-05-11T19:56:28.677Z,11.68
2023-05-11T19:58:58.744Z,11.23
2023-05-11T20:01:28.648Z,12.27
2023-05-11T20:03:58.658Z,12.13
2023-05-11T20:06:28.883Z,12.43
2023-05-11T20:08:58.751Z,14.90
2023-05-11T20:11:30.492Z,11.48
2023-05-11T20:14:04.645Z,12.33
2023-05-11T20:16:34.825Z,11.70
2023-05-11T20:19:05.437Z,11.57
2023-05-11T20:21:36.248Z,14.13
2023-05-11T20:24:08.162Z,12.65
2023-05-11T20:26:38.204Z,12.70
2023-05-11T20:29:09.646Z,11.37
2023-05-11T20:31:39.771Z,13.20
2023-05-11T20:34:09.590Z,12.54
2023-05-11T20:36:39.455Z,11.83
2023-05-11T20:39:09.336Z,12.47
2023-05-11T20:41:39.158Z,14.80
2023-05-11T20:44:10.392Z,18.25
2023-05-11T20:46:41.397Z,15.23
2023-05-11T20:49:13.093Z,12.90
2023-05-11T20:51:43.619Z,13.27
2023-05-11T20:54:14.428Z,15.18
2023-05-11T20:56:44.650Z,14.75
2023-05-11T21:01:46.827Z,13.87
2023-05-11T21:04:16.478Z,13.08
2023-05-11T21:06:46.697Z,13.48
2023-05-11T21:09:16.952Z,11.63
2023-05-11T21:11:48.248Z,13.07
2023-05-11T21:14:18.083Z,13.20
2023-05-11T21:16:48.128Z,14.23
2023-05-11T21:19:18.441Z,12.50
2023-05-11T21:21:49.593Z,13.10
2023-05-11T21:24:20.055Z,13.63
2023-05-11T21:26:49.936Z,11.97
2023-05-11T21:29:19.826Z,14.63
2023-05-11T21:31:49.626Z,12.20
2023-05-11T21:34:19.424Z,11.57
2023-05-11T21:36:49.680Z,13.35
2023-05-11T21:39:19.470Z,11.83
2023-05-11T21:41:49.581Z,15.48
2023-05-11T21:44:19.075Z,11.73
2023-05-11T21:46:49.025Z,14.80
2023-05-11T21:49:18.860Z,18.33
2023-05-11T21:51:50.086Z,13.50
2023-05-11T21:54:22.643Z,15.60
2023-05-11T21:56:54.017Z,14.07
2023-05-11T21:59:25.472Z,17.03
2023-05-11T22:01:57.197Z,14.63
2023-05-11T22:04:27.475Z,18.50
2023-05-11T22:07:01.739Z,14.43
2023-05-11T22:09:31.942Z,13.93
2023-05-11T22:12:02.897Z,13.38
2023-05-11T22:14:32.773Z,14.80
2023-05-11T22:17:02.597Z,17.27
2023-05-11T22:19:32.137Z,11.90
2023-05-11T22:22:02.246Z,11.77
2023-05-11T22:24:32.056Z,10.47
2023-05-11T22:27:02.261Z,9.73
2023-05-11T22:29:32.144Z,10.67
2023-05-11T22:32:02.074Z,11.00
2023-05-11T22:34:31.898Z,9.50
2023-05-11T22:37:01.715Z,14.13
2023-05-11T22:39:31.780Z,9.57
2023-05-11T22:42:01.935Z,9.63
2023-05-11T22:44:31.750Z,7.57
2023-05-11T22:47:02.383Z,7.67
2023-05-11T22:49:33.422Z,8.27
2023-05-11T22:52:03.306Z,8.07
2023-05-11T22:54:33.118Z,7.83
2023-05-11T22:57:03.555Z,9.93
2023-05-11T22:59:34.605Z,13.18
2023-05-11T23:02:06.570Z,11.70
2023-05-11T23:04:36.193Z,10.60
2023-05-11T23:07:07.800Z,10.17
2023-05-11T23:09:37.706Z,12.33
2023-05-11T23:12:10.027Z,10.34
2023-05-11T23:14:39.908Z,14.00
2023-05-11T23:17:09.740Z,10.47
2023-05-11T23:19:39.747Z,10.53
2023-05-11T23:22:10.605Z,11.17
2023-05-11T23:24:40.400Z,9.83
2023-05-11T23:27:10.202Z,9.30
2023-05-11T23:29:40.195Z,8.43
2023-05-11T23:32:10.171Z,10.23
2023-05-11T23:34:40.058Z,10.87
2023-05-11T23:37:09.878Z,9.73
2023-05-11T23:39:39.855Z,10.63
2023-05-11T23:42:10.485Z,14.43
2023-05-11T23:44:40.988Z,12.25
2023-05-11T23:47:10.921Z,11.37
2023-05-11T23:49:40.935Z,11.60
2023-05-11T23:52:10.431Z,11.30
2023-05-11T23:54:40.568Z,9.45
2023-05-11T23:57:10.480Z,11.17
2023-05-11T23:59:40.279Z,11.70
